CMA CGM Musca — 2CAC8 — position and weather

sailwx.info

Track history (hours):
 
Tides and Currents Weather Stations Pressure Air Temp Water Temp Dewpoint Dewpoint Depression Visibility Wind Speed Wind Dir Waves Ship Positions

CMA CGM Musca

Last reported at 2015-Jan-17 14:33 UTC. Time now 2015-Jan-28 16:15 UTC.
Position N 01°59' E 102°12'.
Warning: this ship's position is 11 days out of date.

Length 347 m; draft 13.7 m.

Type: Ship (hazmat cat A). MMSI: 235070914.

Date/timePositionNaut miles runAvg speedWind from/ knotsBaromVisibWave heightAir tempDewpointWater temp
2015-Jan-17 14:33N 01°59' E 102°12'2220.2
2015-Jan-17 13:28N 01°49' E 102°32'1919.6
2015-Jan-17 12:30N 01°41' E 102°49'5618.8
2015-Jan-17 09:31N 01°12' E 103°37'1010.0
2015-Jan-17 08:33N 01°16' E 103°45'0 0.2
2015-Jan-17 07:16N 01°17' E 103°45'0 0.0
2015-Jan-17 06:33N 01°17' E 103°45'0 0.0
2015-Jan-17 05:31N 01°17' E 103°45'0 0.0
2015-Jan-17 04:33N 01°17' E 103°45'0 0.0
2015-Jan-17 03:31N 01°17' E 103°45'0 0.0
2015-Jan-17 02:31N 01°17' E 103°45'0 0.0
2015-Jan-17 01:31N 01°17' E 103°45'0 0.0
2015-Jan-17 00:28N 01°17' E 103°45'0 0.0
2015-Jan-16 23:33N 01°17' E 103°45'0 0.0
2015-Jan-16 22:33N 01°17' E 103°45'0 0.0
2015-Jan-16 21:31N 01°17' E 103°45'0 0.0
2015-Jan-16 20:24N 01°17' E 103°45'0 0.0
2015-Jan-16 19:33N 01°17' E 103°45'0 0.0
2015-Jan-16 18:22N 01°17' E 103°45'0 0.0
2015-Jan-16 17:03N 01°17' E 103°45'0 0.0
2015-Jan-16 16:16N 01°17' E 103°45'0 0.0
2015-Jan-16 15:27N 01°17' E 103°45'0 0.0
2015-Jan-16 14:32N 01°17' E 103°45'0 0.0
2015-Jan-16 13:28N 01°17' E 103°45'0 0.0
2015-Jan-16 12:31N 01°17' E 103°45'0 0.0
2015-Jan-16 11:33N 01°17' E 103°45'0 0.0
2015-Jan-16 10:32N 01°17' E 103°45'0 0.0
2015-Jan-16 09:31N 01°17' E 103°45'0 0.2
2015-Jan-16 08:33N 01°16' E 103°45'4 4.1
2015-Jan-16 07:33N 01°13' E 103°48'9 8.8
2015-Jan-16 06:33N 01°14' E 103°56'9 9.1
2015-Jan-16 05:33N 01°16' E 104°05'1412.8
2015-Jan-16 04:30N 01°18' E 104°19'  
2015-Jan-13 09:29N 21°57' E 114°26'1920.3
2015-Jan-13 08:33N 22°16' E 114°29'7 0.3
2015-Jan-12 10:30N 22°22' E 114°32'28620.0
2015-Jan-11 20:12N 24°23' E 119°15'34520.1
2015-Jan-11 03:04N 29°04' E 122°59'1019.3
2015-Jan-11 02:33N 29°14' E 123°01'2019.7
2015-Jan-11 01:33N 29°33' E 123°02'2020.3
2015-Jan-11 00:33N 29°54' E 123°02'2020.3
2015-Jan-10 23:34N 30°13' E 122°58'2120.9
2015-Jan-10 22:33N 30°31' E 122°44'1818.5
2015-Jan-10 21:33N 30°32' E 122°23'1615.6
2015-Jan-10 20:33N 30°36' E 122°05'1 1.1
2015-Jan-10 19:32N 30°37' E 122°04'0 0.0
2015-Jan-10 18:29N 30°37' E 122°04'0 0.0
2015-Jan-10 17:07N 30°37' E 122°04'0 0.0
2015-Jan-10 16:28N 30°37' E 122°04'0 0.0
2015-Jan-10 15:32N 30°37' E 122°04'0 0.0
2015-Jan-10 14:24N 30°37' E 122°04'0 0.0
2015-Jan-10 13:32N 30°37' E 122°04'0 0.0
2015-Jan-10 12:20N 30°37' E 122°04'0 0.0
2015-Jan-10 11:32N 30°37' E 122°04'0 0.0
2015-Jan-10 10:31N 30°37' E 122°04'0 0.0
2015-Jan-10 09:32N 30°37' E 122°04'0 0.0
2015-Jan-10 08:30N 30°37' E 122°04'0 0.0
2015-Jan-10 07:33N 30°37' E 122°04'0 0.0
2015-Jan-10 06:29N 30°37' E 122°04'0 0.0
2015-Jan-10 05:29N 30°37' E 122°04'0 0.0
2015-Jan-10 04:28N 30°37' E 122°04'0 0.0
2015-Jan-10 03:31N 30°37' E 122°04'0 0.0
2015-Jan-10 02:31N 30°37' E 122°04'0 0.0
2015-Jan-10 01:33N 30°37' E 122°04'0 0.0
2015-Jan-10 00:33N 30°37' E 122°04'0 0.0
2015-Jan-09 23:32N 30°37' E 122°04'0 0.0
2015-Jan-09 22:32N 30°37' E 122°04'0 0.0
2015-Jan-09 21:34N 30°37' E 122°04'7 7.3
2015-Jan-09 20:34N 30°34' E 122°12'8 8.2
2015-Jan-09 19:33N 30°33' E 122°22'2 2.1
2015-Jan-09 18:34N 30°33' E 122°24'8 7.6
2015-Jan-09 17:33N 30°32' E 122°33'8 7.9
2015-Jan-09 16:33N 30°33' E 122°42'6 5.6
2015-Jan-09 15:33N 30°34' E 122°48'7 6.7
2015-Jan-09 14:33N 30°38' E 122°55'7 3.3
2015-Jan-09 12:33N 30°36' E 123°03'6 6.3
2015-Jan-09 11:33N 30°41' E 123°08'35011.0
2015-Jan-08 03:51N 36°01' E 120°20'6 0.8
2015-Jan-07 20:29N 36°00' E 120°12'0 0.0
2015-Jan-07 17:15N 36°00' E 120°12'  
Track history (hours):
 
Tides and Currents Weather Stations Pressure Air Temp Water Temp Dewpoint Dewpoint Depression Visibility Wind Speed Wind Dir Waves Ship Positions

CMA CGM Musca

Last reported at 2015-Jan-17 14:33 UTC. Time now 2015-Jan-28 16:15 UTC.
Position N 01°59' E 102°12'.
Warning: this ship's position is 11 days out of date.

Length 347 m; draft 13.7 m.

Type: Ship (hazmat cat A). MMSI: 235070914.

Date/timePositionNaut miles runAvg speedWind from/ knotsBaromVisibWave heightAir tempDewpointWater temp
2015-Jan-17 14:33N 01°59' E 102°12'2220.2
2015-Jan-17 13:28N 01°49' E 102°32'1919.6
2015-Jan-17 12:30N 01°41' E 102°49'5618.8
2015-Jan-17 09:31N 01°12' E 103°37'1010.0
2015-Jan-17 08:33N 01°16' E 103°45'0 0.2
2015-Jan-17 07:16N 01°17' E 103°45'0 0.0
2015-Jan-17 06:33N 01°17' E 103°45'0 0.0
2015-Jan-17 05:31N 01°17' E 103°45'0 0.0
2015-Jan-17 04:33N 01°17' E 103°45'0 0.0
2015-Jan-17 03:31N 01°17' E 103°45'0 0.0
2015-Jan-17 02:31N 01°17' E 103°45'0 0.0
2015-Jan-17 01:31N 01°17' E 103°45'0 0.0
2015-Jan-17 00:28N 01°17' E 103°45'0 0.0
2015-Jan-16 23:33N 01°17' E 103°45'0 0.0
2015-Jan-16 22:33N 01°17' E 103°45'0 0.0
2015-Jan-16 21:31N 01°17' E 103°45'0 0.0
2015-Jan-16 20:24N 01°17' E 103°45'0 0.0
2015-Jan-16 19:33N 01°17' E 103°45'0 0.0
2015-Jan-16 18:22N 01°17' E 103°45'0 0.0
2015-Jan-16 17:03N 01°17' E 103°45'0 0.0
2015-Jan-16 16:16N 01°17' E 103°45'0 0.0
2015-Jan-16 15:27N 01°17' E 103°45'0 0.0
2015-Jan-16 14:32N 01°17' E 103°45'0 0.0
2015-Jan-16 13:28N 01°17' E 103°45'0 0.0
2015-Jan-16 12:31N 01°17' E 103°45'0 0.0
2015-Jan-16 11:33N 01°17' E 103°45'0 0.0
2015-Jan-16 10:32N 01°17' E 103°45'0 0.0
2015-Jan-16 09:31N 01°17' E 103°45'0 0.2
2015-Jan-16 08:33N 01°16' E 103°45'4 4.1
2015-Jan-16 07:33N 01°13' E 103°48'9 8.8
2015-Jan-16 06:33N 01°14' E 103°56'9 9.1
2015-Jan-16 05:33N 01°16' E 104°05'1412.8
2015-Jan-16 04:30N 01°18' E 104°19'  
2015-Jan-13 09:29N 21°57' E 114°26'1920.3
2015-Jan-13 08:33N 22°16' E 114°29'7 0.3
2015-Jan-12 10:30N 22°22' E 114°32'28620.0
2015-Jan-11 20:12N 24°23' E 119°15'34520.1
2015-Jan-11 03:04N 29°04' E 122°59'1019.3
2015-Jan-11 02:33N 29°14' E 123°01'2019.7
2015-Jan-11 01:33N 29°33' E 123°02'2020.3
2015-Jan-11 00:33N 29°54' E 123°02'2020.3
2015-Jan-10 23:34N 30°13' E 122°58'2120.9
2015-Jan-10 22:33N 30°31' E 122°44'1818.5
2015-Jan-10 21:33N 30°32' E 122°23'1615.6
2015-Jan-10 20:33N 30°36' E 122°05'1 1.1
2015-Jan-10 19:32N 30°37' E 122°04'0 0.0
2015-Jan-10 18:29N 30°37' E 122°04'0 0.0
2015-Jan-10 17:07N 30°37' E 122°04'0 0.0
2015-Jan-10 16:28N 30°37' E 122°04'0 0.0
2015-Jan-10 15:32N 30°37' E 122°04'0 0.0
2015-Jan-10 14:24N 30°37' E 122°04'0 0.0
2015-Jan-10 13:32N 30°37' E 122°04'0 0.0
2015-Jan-10 12:20N 30°37' E 122°04'0 0.0
2015-Jan-10 11:32N 30°37' E 122°04'0 0.0
2015-Jan-10 10:31N 30°37' E 122°04'0 0.0
2015-Jan-10 09:32N 30°37' E 122°04'0 0.0
2015-Jan-10 08:30N 30°37' E 122°04'0 0.0
2015-Jan-10 07:33N 30°37' E 122°04'0 0.0
2015-Jan-10 06:29N 30°37' E 122°04'0 0.0
2015-Jan-10 05:29N 30°37' E 122°04'0 0.0
2015-Jan-10 04:28N 30°37' E 122°04'0 0.0
2015-Jan-10 03:31N 30°37' E 122°04'0 0.0
2015-Jan-10 02:31N 30°37' E 122°04'0 0.0
2015-Jan-10 01:33N 30°37' E 122°04'0 0.0
2015-Jan-10 00:33N 30°37' E 122°04'0 0.0
2015-Jan-09 23:32N 30°37' E 122°04'0 0.0
2015-Jan-09 22:32N 30°37' E 122°04'0 0.0
2015-Jan-09 21:34N 30°37' E 122°04'7 7.3
2015-Jan-09 20:34N 30°34' E 122°12'8 8.2
2015-Jan-09 19:33N 30°33' E 122°22'2 2.1
2015-Jan-09 18:34N 30°33' E 122°24'8 7.6
2015-Jan-09 17:33N 30°32' E 122°33'8 7.9
2015-Jan-09 16:33N 30°33' E 122°42'6 5.6
2015-Jan-09 15:33N 30°34' E 122°48'7 6.7
2015-Jan-09 14:33N 30°38' E 122°55'7 3.3
2015-Jan-09 12:33N 30°36' E 123°03'6 6.3
2015-Jan-09 11:33N 30°41' E 123°08'35011.0
2015-Jan-08 03:51N 36°01' E 120°20'6 0.8
2015-Jan-07 20:29N 36°00' E 120°12'0 0.0
2015-Jan-07 17:15N 36°00' E 120°12'  

Dump ship's entire track history